sensor_id;sensor_type;location;lat;lon;timestamp;P1;durP1;ratioP1;P2;durP2;ratioP2
5811;SDS011;2932;52.400;9.558;2023-04-16T00:00:08;22.10;;;15.97;;
5811;SDS011;2932;52.400;9.558;2023-04-16T00:02:33;22.17;;;16.13;;
5811;SDS011;2932;52.400;9.558;2023-04-16T00:04:59;20.57;;;15.57;;
5811;SDS011;2932;52.400;9.558;2023-04-16T00:07:24;22.03;;;16.40;;
5811;SDS011;2932;52.400;9.558;2023-04-16T00:09:50;24.90;;;16.37;;
5811;SDS011;2932;52.400;9.558;2023-04-16T00:12:15;21.40;;;16.27;;
5811;SDS011;2932;52.400;9.558;2023-04-16T00:14:41;22.17;;;17.10;;
5811;SDS011;2932;52.400;9.558;2023-04-16T00:17:07;23.10;;;17.47;;
5811;SDS011;2932;52.400;9.558;2023-04-16T00:19:33;26.40;;;17.23;;
5811;SDS011;2932;52.400;9.558;2023-04-16T00:21:58;24.53;;;17.47;;
5811;SDS011;2932;52.400;9.558;2023-04-16T00:24:23;25.07;;;17.40;;
5811;SDS011;2932;52.400;9.558;2023-04-16T00:26:49;24.67;;;18.20;;
5811;SDS011;2932;52.400;9.558;2023-04-16T00:29:14;25.20;;;17.57;;
5811;SDS011;2932;52.400;9.558;2023-04-16T00:31:42;23.13;;;17.33;;
5811;SDS011;2932;52.400;9.558;2023-04-16T00:34:07;23.87;;;18.23;;
5811;SDS011;2932;52.400;9.558;2023-04-16T00:36:33;24.80;;;17.87;;
5811;SDS011;2932;52.400;9.558;2023-04-16T00:38:58;25.23;;;19.40;;
5811;SDS011;2932;52.400;9.558;2023-04-16T00:41:23;26.63;;;18.90;;
5811;SDS011;2932;52.400;9.558;2023-04-16T00:43:50;28.07;;;19.23;;
5811;SDS011;2932;52.400;9.558;2023-04-16T00:46:15;29.00;;;20.07;;
5811;SDS011;2932;52.400;9.558;2023-04-16T00:48:41;25.27;;;19.17;;
5811;SDS011;2932;52.400;9.558;2023-04-16T00:51:07;26.60;;;18.87;;
5811;SDS011;2932;52.400;9.558;2023-04-16T00:53:34;29.10;;;19.43;;
5811;SDS011;2932;52.400;9.558;2023-04-16T00:56:03;25.57;;;19.50;;
5811;SDS011;2932;52.400;9.558;2023-04-16T00:58:30;34.23;;;20.07;;
5811;SDS011;2932;52.400;9.558;2023-04-16T01:00:57;25.50;;;18.53;;
5811;SDS011;2932;52.400;9.558;2023-04-16T01:03:23;23.13;;;18.33;;
5811;SDS011;2932;52.400;9.558;2023-04-16T01:06:05;25.03;;;18.27;;
5811;SDS011;2932;52.400;9.558;2023-04-16T01:08:31;28.80;;;19.57;;
5811;SDS011;2932;52.400;9.558;2023-04-16T01:11:00;29.57;;;19.87;;
5811;SDS011;2932;52.400;9.558;2023-04-16T01:13:25;25.43;;;18.63;;
5811;SDS011;2932;52.400;9.558;2023-04-16T01:15:51;31.33;;;19.33;;
5811;SDS011;2932;52.400;9.558;2023-04-16T01:18:17;27.57;;;19.37;;
5811;SDS011;2932;52.400;9.558;2023-04-16T01:20:44;25.93;;;19.70;;
5811;SDS011;2932;52.400;9.558;2023-04-16T01:23:10;23.97;;;18.63;;
5811;SDS011;2932;52.400;9.558;2023-04-16T01:25:36;25.73;;;18.57;;
5811;SDS011;2932;52.400;9.558;2023-04-16T01:28:01;26.30;;;18.07;;
5811;SDS011;2932;52.400;9.558;2023-04-16T01:30:27;28.13;;;18.83;;
5811;SDS011;2932;52.400;9.558;2023-04-16T01:32:53;23.70;;;18.80;;
5811;SDS011;2932;52.400;9.558;2023-04-16T01:35:18;24.70;;;17.87;;
5811;SDS011;2932;52.400;9.558;2023-04-16T01:37:44;23.67;;;17.20;;
5811;SDS011;2932;52.400;9.558;2023-04-16T01:40:09;26.17;;;17.20;;
5811;SDS011;2932;52.400;9.558;2023-04-16T01:42:35;28.33;;;18.77;;
5811;SDS011;2932;52.400;9.558;2023-04-16T01:45:02;24.87;;;18.07;;
5811;SDS011;2932;52.400;9.558;2023-04-16T01:47:27;25.80;;;18.10;;
5811;SDS011;2932;52.400;9.558;2023-04-16T01:49:53;25.17;;;18.37;;
5811;SDS011;2932;52.400;9.558;2023-04-16T01:52:18;25.77;;;18.93;;
5811;SDS011;2932;52.400;9.558;2023-04-16T01:54:43;23.33;;;18.63;;
5811;SDS011;2932;52.400;9.558;2023-04-16T01:57:09;24.97;;;18.53;;
5811;SDS011;2932;52.400;9.558;2023-04-16T01:59:35;25.67;;;18.90;;
5811;SDS011;2932;52.400;9.558;2023-04-16T02:02:02;27.73;;;19.30;;
5811;SDS011;2932;52.400;9.558;2023-04-16T02:04:34;28.97;;;20.33;;
5811;SDS011;2932;52.400;9.558;2023-04-16T02:07:00;28.63;;;20.13;;
5811;SDS011;2932;52.400;9.558;2023-04-16T02:09:25;28.67;;;21.00;;
5811;SDS011;2932;52.400;9.558;2023-04-16T02:11:51;31.27;;;20.97;;
5811;SDS011;2932;52.400;9.558;2023-04-16T02:14:16;32.10;;;21.60;;
5811;SDS011;2932;52.400;9.558;2023-04-16T02:16:41;35.47;;;21.00;;
5811;SDS011;2932;52.400;9.558;2023-04-16T02:19:07;27.57;;;20.33;;
5811;SDS011;2932;52.400;9.558;2023-04-16T02:21:32;30.30;;;20.30;;
5811;SDS011;2932;52.400;9.558;2023-04-16T02:23:57;27.77;;;19.80;;
5811;SDS011;2932;52.400;9.558;2023-04-16T02:26:23;30.27;;;21.00;;
5811;SDS011;2932;52.400;9.558;2023-04-16T02:28:48;27.87;;;20.67;;
5811;SDS011;2932;52.400;9.558;2023-04-16T02:31:14;27.23;;;19.50;;
5811;SDS011;2932;52.400;9.558;2023-04-16T02:33:41;26.73;;;20.70;;
5811;SDS011;2932;52.400;9.558;2023-04-16T02:36:07;31.53;;;20.23;;
5811;SDS011;2932;52.400;9.558;2023-04-16T02:38:35;31.20;;;21.00;;
5811;SDS011;2932;52.400;9.558;2023-04-16T02:41:01;30.40;;;21.23;;
5811;SDS011;2932;52.400;9.558;2023-04-16T02:43:26;31.00;;;21.50;;
5811;SDS011;2932;52.400;9.558;2023-04-16T02:45:52;34.37;;;21.87;;
5811;SDS011;2932;52.400;9.558;2023-04-16T02:48:17;32.93;;;22.47;;
5811;SDS011;2932;52.400;9.558;2023-04-16T02:50:42;33.57;;;22.57;;
5811;SDS011;2932;52.400;9.558;2023-04-16T02:53:08;37.07;;;23.57;;
5811;SDS011;2932;52.400;9.558;2023-04-16T02:55:34;37.57;;;24.57;;
5811;SDS011;2932;52.400;9.558;2023-04-16T02:58:00;31.63;;;22.00;;
5811;SDS011;2932;52.400;9.558;2023-04-16T03:00:25;38.23;;;23.60;;
5811;SDS011;2932;52.400;9.558;2023-04-16T03:02:50;34.53;;;23.93;;
5811;SDS011;2932;52.400;9.558;2023-04-16T03:05:16;34.67;;;23.57;;
5811;SDS011;2932;52.400;9.558;2023-04-16T03:07:41;35.57;;;23.40;;
5811;SDS011;2932;52.400;9.558;2023-04-16T03:10:07;34.53;;;23.27;;
5811;SDS011;2932;52.400;9.558;2023-04-16T03:12:33;33.63;;;23.43;;
5811;SDS011;2932;52.400;9.558;2023-04-16T03:14:59;31.77;;;22.50;;
5811;SDS011;2932;52.400;9.558;2023-04-16T03:17:24;33.33;;;22.67;;
5811;SDS011;2932;52.400;9.558;2023-04-16T03:19:50;33.37;;;21.67;;
5811;SDS011;2932;52.400;9.558;2023-04-16T03:22:15;28.53;;;20.43;;
5811;SDS011;2932;52.400;9.558;2023-04-16T03:24:41;29.43;;;19.33;;
5811;SDS011;2932;52.400;9.558;2023-04-16T03:27:06;29.07;;;18.40;;
5811;SDS011;2932;52.400;9.558;2023-04-16T03:29:32;29.20;;;19.23;;
5811;SDS011;2932;52.400;9.558;2023-04-16T03:31:57;27.10;;;18.67;;
5811;SDS011;2932;52.400;9.558;2023-04-16T03:34:22;27.23;;;18.70;;
5811;SDS011;2932;52.400;9.558;2023-04-16T03:36:48;30.77;;;18.30;;
5811;SDS011;2932;52.400;9.558;2023-04-16T03:39:13;25.77;;;17.73;;
5811;SDS011;2932;52.400;9.558;2023-04-16T03:41:38;27.03;;;19.07;;
5811;SDS011;2932;52.400;9.558;2023-04-16T03:44:04;27.50;;;17.93;;
5811;SDS011;2932;52.400;9.558;2023-04-16T03:46:29;28.63;;;17.77;;
5811;SDS011;2932;52.400;9.558;2023-04-16T03:48:55;26.80;;;17.67;;
5811;SDS011;2932;52.400;9.558;2023-04-16T03:51:20;27.60;;;18.37;;
5811;SDS011;2932;52.400;9.558;2023-04-16T03:53:45;25.37;;;17.67;;
5811;SDS011;2932;52.400;9.558;2023-04-16T03:56:11;26.93;;;18.30;;
5811;SDS011;2932;52.400;9.558;2023-04-16T03:58:36;23.63;;;16.77;;
5811;SDS011;2932;52.400;9.558;2023-04-16T04:01:01;28.70;;;17.37;;
5811;SDS011;2932;52.400;9.558;2023-04-16T04:03:26;25.03;;;17.90;;
5811;SDS011;2932;52.400;9.558;2023-04-16T04:05:52;27.47;;;18.03;;
5811;SDS011;2932;52.400;9.558;2023-04-16T04:08:20;31.43;;;18.00;;
5811;SDS011;2932;52.400;9.558;2023-04-16T04:10:45;27.13;;;17.97;;
5811;SDS011;2932;52.400;9.558;2023-04-16T04:13:11;27.20;;;18.30;;
5811;SDS011;2932;52.400;9.558;2023-04-16T04:15:36;24.17;;;17.83;;
5811;SDS011;2932;52.400;9.558;2023-04-16T04:18:01;25.60;;;17.20;;
5811;SDS011;2932;52.400;9.558;2023-04-16T04:20:27;29.80;;;17.87;;
5811;SDS011;2932;52.400;9.558;2023-04-16T04:22:52;27.00;;;16.93;;
5811;SDS011;2932;52.400;9.558;2023-04-16T04:25:17;28.17;;;18.27;;
5811;SDS011;2932;52.400;9.558;2023-04-16T04:27:46;31.70;;;18.73;;
5811;SDS011;2932;52.400;9.558;2023-04-16T04:30:11;26.33;;;17.43;;
5811;SDS011;2932;52.400;9.558;2023-04-16T04:32:36;28.00;;;17.67;;
5811;SDS011;2932;52.400;9.558;2023-04-16T04:35:02;27.17;;;17.83;;
5811;SDS011;2932;52.400;9.558;2023-04-16T04:37:30;28.83;;;17.93;;
5811;SDS011;2932;52.400;9.558;2023-04-16T04:39:55;27.63;;;17.90;;
5811;SDS011;2932;52.400;9.558;2023-04-16T04:42:21;26.20;;;17.70;;
5811;SDS011;2932;52.400;9.558;2023-04-16T04:44:46;28.43;;;18.30;;
5811;SDS011;2932;52.400;9.558;2023-04-16T04:47:12;27.57;;;16.87;;
5811;SDS011;2932;52.400;9.558;2023-04-16T04:49:44;25.20;;;16.27;;
5811;SDS011;2932;52.400;9.558;2023-04-16T04:52:09;32.77;;;19.33;;
5811;SDS011;2932;52.400;9.558;2023-04-16T04:54:35;29.30;;;18.93;;
5811;SDS011;2932;52.400;9.558;2023-04-16T04:57:01;29.63;;;18.90;;
5811;SDS011;2932;52.400;9.558;2023-04-16T04:59:26;27.10;;;17.87;;
5811;SDS011;2932;52.400;9.558;2023-04-16T05:01:52;27.17;;;17.37;;
5811;SDS011;2932;52.400;9.558;2023-04-16T05:04:17;26.50;;;18.07;;
5811;SDS011;2932;52.400;9.558;2023-04-16T05:06:43;27.30;;;18.33;;
5811;SDS011;2932;52.400;9.558;2023-04-16T05:09:09;26.47;;;17.13;;
5811;SDS011;2932;52.400;9.558;2023-04-16T05:11:36;25.20;;;16.73;;
5811;SDS011;2932;52.400;9.558;2023-04-16T05:14:05;25.63;;;17.87;;
5811;SDS011;2932;52.400;9.558;2023-04-16T05:16:30;25.33;;;16.37;;
5811;SDS011;2932;52.400;9.558;2023-04-16T05:18:55;28.70;;;17.07;;
5811;SDS011;2932;52.400;9.558;2023-04-16T05:21:22;24.97;;;16.77;;
5811;SDS011;2932;52.400;9.558;2023-04-16T05:23:47;25.23;;;16.80;;
5811;SDS011;2932;52.400;9.558;2023-04-16T05:26:12;24.30;;;16.33;;
5811;SDS011;2932;52.400;9.558;2023-04-16T05:28:38;27.53;;;16.97;;
5811;SDS011;2932;52.400;9.558;2023-04-16T05:31:03;22.70;;;15.53;;
5811;SDS011;2932;52.400;9.558;2023-04-16T05:33:28;24.83;;;17.73;;
5811;SDS011;2932;52.400;9.558;2023-04-16T05:35:54;29.57;;;18.00;;
5811;SDS011;2932;52.400;9.558;2023-04-16T05:38:19;28.70;;;18.10;;
5811;SDS011;2932;52.400;9.558;2023-04-16T05:40:44;26.90;;;17.80;;
5811;SDS011;2932;52.400;9.558;2023-04-16T05:43:10;25.10;;;17.17;;
5811;SDS011;2932;52.400;9.558;2023-04-16T05:45:35;25.87;;;17.70;;
5811;SDS011;2932;52.400;9.558;2023-04-16T05:48:05;25.77;;;17.67;;
5811;SDS011;2932;52.400;9.558;2023-04-16T05:50:34;29.47;;;18.57;;
5811;SDS011;2932;52.400;9.558;2023-04-16T05:53:00;26.30;;;18.23;;
5811;SDS011;2932;52.400;9.558;2023-04-16T05:55:26;26.93;;;18.13;;
5811;SDS011;2932;52.400;9.558;2023-04-16T05:57:52;29.87;;;20.00;;
5811;SDS011;2932;52.400;9.558;2023-04-16T06:00:17;27.17;;;18.53;;
5811;SDS011;2932;52.400;9.558;2023-04-16T06:02:42;28.37;;;18.60;;
5811;SDS011;2932;52.400;9.558;2023-04-16T06:05:08;28.67;;;18.27;;
5811;SDS011;2932;52.400;9.558;2023-04-16T06:07:33;25.73;;;18.07;;
5811;SDS011;2932;52.400;9.558;2023-04-16T06:09:59;24.17;;;17.33;;
5811;SDS011;2932;52.400;9.558;2023-04-16T06:12:24;25.60;;;17.37;;
5811;SDS011;2932;52.400;9.558;2023-04-16T06:14:50;24.33;;;16.70;;
5811;SDS011;2932;52.400;9.558;2023-04-16T06:17:15;25.23;;;17.93;;
5811;SDS011;2932;52.400;9.558;2023-04-16T06:19:40;26.83;;;16.77;;
5811;SDS011;2932;52.400;9.558;2023-04-16T06:22:08;28.97;;;19.47;;
5811;SDS011;2932;52.400;9.558;2023-04-16T06:24:34;22.77;;;16.20;;
5811;SDS011;2932;52.400;9.558;2023-04-16T06:27:00;21.30;;;15.10;;
5811;SDS011;2932;52.400;9.558;2023-04-16T06:29:25;26.03;;;16.93;;
5811;SDS011;2932;52.400;9.558;2023-04-16T06:31:50;23.83;;;16.23;;
5811;SDS011;2932;52.400;9.558;2023-04-16T06:34:16;23.53;;;15.60;;
5811;SDS011;2932;52.400;9.558;2023-04-16T06:36:41;23.40;;;14.40;;
5811;SDS011;2932;52.400;9.558;2023-04-16T06:39:06;18.40;;;14.20;;
5811;SDS011;2932;52.400;9.558;2023-04-16T06:41:32;22.07;;;14.30;;
5811;SDS011;2932;52.400;9.558;2023-04-16T06:43:57;21.07;;;14.30;;
5811;SDS011;2932;52.400;9.558;2023-04-16T06:46:22;18.93;;;13.57;;
5811;SDS011;2932;52.400;9.558;2023-04-16T06:48:48;23.47;;;15.87;;
5811;SDS011;2932;52.400;9.558;2023-04-16T06:51:13;27.87;;;15.23;;
5811;SDS011;2932;52.400;9.558;2023-04-16T06:53:39;23.70;;;14.80;;
5811;SDS011;2932;52.400;9.558;2023-04-16T06:56:04;19.93;;;13.73;;
5811;SDS011;2932;52.400;9.558;2023-04-16T06:58:30;22.43;;;14.57;;
5811;SDS011;2932;52.400;9.558;2023-04-16T07:00:55;21.20;;;13.47;;
5811;SDS011;2932;52.400;9.558;2023-04-16T07:03:21;21.17;;;14.10;;
5811;SDS011;2932;52.400;9.558;2023-04-16T07:05:46;18.23;;;13.07;;
5811;SDS011;2932;52.400;9.558;2023-04-16T07:08:11;22.37;;;14.33;;
5811;SDS011;2932;52.400;9.558;2023-04-16T07:10:37;23.47;;;14.03;;
5811;SDS011;2932;52.400;9.558;2023-04-16T07:13:02;17.83;;;12.57;;
5811;SDS011;2932;52.400;9.558;2023-04-16T07:15:28;22.80;;;14.40;;
5811;SDS011;2932;52.400;9.558;2023-04-16T07:17:53;16.40;;;11.87;;
5811;SDS011;2932;52.400;9.558;2023-04-16T07:20:19;22.27;;;15.00;;
5811;SDS011;2932;52.400;9.558;2023-04-16T07:22:44;20.63;;;13.43;;
5811;SDS011;2932;52.400;9.558;2023-04-16T07:25:09;18.20;;;13.40;;
5811;SDS011;2932;52.400;9.558;2023-04-16T07:27:35;20.37;;;14.17;;
5811;SDS011;2932;52.400;9.558;2023-04-16T07:30:00;19.20;;;13.03;;
5811;SDS011;2932;52.400;9.558;2023-04-16T07:32:25;18.97;;;12.73;;
5811;SDS011;2932;52.400;9.558;2023-04-16T07:34:51;19.70;;;12.40;;
5811;SDS011;2932;52.400;9.558;2023-04-16T07:37:16;25.43;;;16.33;;
5811;SDS011;2932;52.400;9.558;2023-04-16T07:39:41;22.27;;;15.00;;
5811;SDS011;2932;52.400;9.558;2023-04-16T07:42:07;21.37;;;13.43;;
5811;SDS011;2932;52.400;9.558;2023-04-16T07:44:32;17.57;;;12.83;;
5811;SDS011;2932;52.400;9.558;2023-04-16T07:46:57;27.33;;;14.17;;
5811;SDS011;2932;52.400;9.558;2023-04-16T07:49:23;22.43;;;14.07;;
5811;SDS011;2932;52.400;9.558;2023-04-16T07:51:48;17.17;;;12.63;;
5811;SDS011;2932;52.400;9.558;2023-04-16T07:54:14;19.83;;;13.13;;
5811;SDS011;2932;52.400;9.558;2023-04-16T07:56:39;17.57;;;13.00;;
5811;SDS011;2932;52.400;9.558;2023-04-16T07:59:04;20.30;;;13.67;;
5811;SDS011;2932;52.400;9.558;2023-04-16T08:01:30;22.23;;;14.67;;
5811;SDS011;2932;52.400;9.558;2023-04-16T08:03:56;21.63;;;14.30;;
5811;SDS011;2932;52.400;9.558;2023-04-16T08:06:21;19.97;;;13.47;;
5811;SDS011;2932;52.400;9.558;2023-04-16T08:08:46;18.63;;;11.87;;
5811;SDS011;2932;52.400;9.558;2023-04-16T08:11:12;17.07;;;12.87;;
5811;SDS011;2932;52.400;9.558;2023-04-16T08:13:37;18.63;;;12.33;;
5811;SDS011;2932;52.400;9.558;2023-04-16T08:16:02;20.40;;;13.83;;
5811;SDS011;2932;52.400;9.558;2023-04-16T08:18:28;17.63;;;12.60;;
5811;SDS011;2932;52.400;9.558;2023-04-16T08:20:53;22.47;;;12.57;;
5811;SDS011;2932;52.400;9.558;2023-04-16T08:23:19;20.33;;;13.43;;
5811;SDS011;2932;52.400;9.558;2023-04-16T08:25:46;19.87;;;13.70;;
5811;SDS011;2932;52.400;9.558;2023-04-16T08:28:11;17.63;;;13.20;;
5811;SDS011;2932;52.400;9.558;2023-04-16T08:30:36;19.43;;;13.33;;
5811;SDS011;2932;52.400;9.558;2023-04-16T08:33:02;18.47;;;13.27;;
5811;SDS011;2932;52.400;9.558;2023-04-16T08:35:27;20.20;;;13.17;;
5811;SDS011;2932;52.400;9.558;2023-04-16T08:37:52;19.90;;;13.43;;
5811;SDS011;2932;52.400;9.558;2023-04-16T08:40:18;21.10;;;15.17;;
5811;SDS011;2932;52.400;9.558;2023-04-16T08:42:45;20.20;;;14.23;;
5811;SDS011;2932;52.400;9.558;2023-04-16T08:45:16;19.33;;;14.20;;
5811;SDS011;2932;52.400;9.558;2023-04-16T08:47:45;18.63;;;13.67;;
5811;SDS011;2932;52.400;9.558;2023-04-16T08:50:13;19.07;;;14.27;;
5811;SDS011;2932;52.400;9.558;2023-04-16T08:52:55;21.20;;;14.50;;
5811;SDS011;2932;52.400;9.558;2023-04-16T08:55:30;23.20;;;15.93;;
5811;SDS011;2932;52.400;9.558;2023-04-16T08:58:01;23.40;;;14.83;;
5811;SDS011;2932;52.400;9.558;2023-04-16T09:00:32;20.03;;;14.07;;
5811;SDS011;2932;52.400;9.558;2023-04-16T09:02:58;18.57;;;14.70;;
5811;SDS011;2932;52.400;9.558;2023-04-16T09:05:24;21.37;;;14.70;;
5811;SDS011;2932;52.400;9.558;2023-04-16T09:07:53;21.43;;;14.70;;
5811;SDS011;2932;52.400;9.558;2023-04-16T09:10:18;20.50;;;15.20;;
5811;SDS011;2932;52.400;9.558;2023-04-16T09:12:44;23.93;;;15.50;;
5811;SDS011;2932;52.400;9.558;2023-04-16T09:15:10;21.73;;;15.67;;
5811;SDS011;2932;52.400;9.558;2023-04-16T09:17:36;19.53;;;14.53;;
5811;SDS011;2932;52.400;9.558;2023-04-16T09:20:05;19.73;;;14.40;;
5811;SDS011;2932;52.400;9.558;2023-04-16T09:22:33;20.40;;;14.70;;
5811;SDS011;2932;52.400;9.558;2023-04-16T09:24:59;21.10;;;14.47;;
5811;SDS011;2932;52.400;9.558;2023-04-16T09:27:24;21.13;;;14.53;;
5811;SDS011;2932;52.400;9.558;2023-04-16T09:29:50;22.87;;;13.80;;
5811;SDS011;2932;52.400;9.558;2023-04-16T09:32:15;19.10;;;14.03;;
5811;SDS011;2932;52.400;9.558;2023-04-16T09:37:35;19.27;;;13.37;;
5811;SDS011;2932;52.400;9.558;2023-04-16T09:40:01;19.53;;;14.00;;
5811;SDS011;2932;52.400;9.558;2023-04-16T09:42:29;21.77;;;14.33;;
5811;SDS011;2932;52.400;9.558;2023-04-16T09:44:58;18.63;;;13.10;;
5811;SDS011;2932;52.400;9.558;2023-04-16T09:47:24;19.80;;;13.97;;
5811;SDS011;2932;52.400;9.558;2023-04-16T09:50:02;19.37;;;13.10;;
5811;SDS011;2932;52.400;9.558;2023-04-16T09:52:27;19.23;;;13.97;;
5811;SDS011;2932;52.400;9.558;2023-04-16T09:54:52;16.13;;;12.90;;
5811;SDS011;2932;52.400;9.558;2023-04-16T09:57:19;19.07;;;13.63;;
5811;SDS011;2932;52.400;9.558;2023-04-16T09:59:45;18.97;;;13.83;;
5811;SDS011;2932;52.400;9.558;2023-04-16T10:02:11;20.63;;;14.93;;
5811;SDS011;2932;52.400;9.558;2023-04-16T10:04:46;20.00;;;14.27;;
5811;SDS011;2932;52.400;9.558;2023-04-16T10:07:13;20.23;;;14.37;;
5811;SDS011;2932;52.400;9.558;2023-04-16T10:09:38;19.47;;;14.17;;
5811;SDS011;2932;52.400;9.558;2023-04-16T10:12:04;21.47;;;15.00;;
5811;SDS011;2932;52.400;9.558;2023-04-16T10:14:30;20.63;;;14.43;;
5811;SDS011;2932;52.400;9.558;2023-04-16T10:16:56;22.23;;;14.77;;
5811;SDS011;2932;52.400;9.558;2023-04-16T10:19:22;18.13;;;13.93;;
5811;SDS011;2932;52.400;9.558;2023-04-16T10:21:48;20.20;;;15.03;;
5811;SDS011;2932;52.400;9.558;2023-04-16T10:24:14;22.60;;;15.03;;
5811;SDS011;2932;52.400;9.558;2023-04-16T10:26:41;24.47;;;16.53;;
5811;SDS011;2932;52.400;9.558;2023-04-16T10:29:07;22.03;;;16.00;;
5811;SDS011;2932;52.400;9.558;2023-04-16T10:31:33;24.70;;;15.83;;
5811;SDS011;2932;52.400;9.558;2023-04-16T10:34:00;28.33;;;17.77;;
5811;SDS011;2932;52.400;9.558;2023-04-16T10:36:27;24.90;;;15.57;;
5811;SDS011;2932;52.400;9.558;2023-04-16T10:38:56;23.40;;;15.77;;
5811;SDS011;2932;52.400;9.558;2023-04-16T10:41:22;24.93;;;16.73;;
5811;SDS011;2932;52.400;9.558;2023-04-16T10:43:50;22.93;;;16.47;;
5811;SDS011;2932;52.400;9.558;2023-04-16T10:48:52;23.90;;;15.57;;
5811;SDS011;2932;52.400;9.558;2023-04-16T10:51:31;22.03;;;15.57;;
5811;SDS011;2932;52.400;9.558;2023-04-16T10:54:02;20.13;;;14.73;;
5811;SDS011;2932;52.400;9.558;2023-04-16T10:56:43;22.20;;;16.43;;
5811;SDS011;2932;52.400;9.558;2023-04-16T10:59:10;26.87;;;18.97;;
5811;SDS011;2932;52.400;9.558;2023-04-16T11:01:37;26.60;;;18.43;;
5811;SDS011;2932;52.400;9.558;2023-04-16T11:06:43;32.03;;;18.83;;
5811;SDS011;2932;52.400;9.558;2023-04-16T11:09:58;26.27;;;17.60;;
5811;SDS011;2932;52.400;9.558;2023-04-16T11:15:08;21.67;;;15.57;;
5811;SDS011;2932;52.400;9.558;2023-04-16T11:20:13;18.00;;;14.73;;
5811;SDS011;2932;52.400;9.558;2023-04-16T11:22:41;20.57;;;15.40;;
5811;SDS011;2932;52.400;9.558;2023-04-16T11:25:07;22.47;;;15.83;;
5811;SDS011;2932;52.400;9.558;2023-04-16T11:27:32;23.30;;;16.00;;
5811;SDS011;2932;52.400;9.558;2023-04-16T11:29:58;23.50;;;16.13;;
5811;SDS011;2932;52.400;9.558;2023-04-16T11:32:25;28.83;;;17.90;;
5811;SDS011;2932;52.400;9.558;2023-04-16T11:34:51;25.33;;;15.73;;
5811;SDS011;2932;52.400;9.558;2023-04-16T11:37:20;24.50;;;16.47;;
5811;SDS011;2932;52.400;9.558;2023-04-16T11:39:50;28.30;;;18.00;;
5811;SDS011;2932;52.400;9.558;2023-04-16T11:42:20;21.87;;;16.87;;
5811;SDS011;2932;52.400;9.558;2023-04-16T11:44:50;21.60;;;15.30;;
5811;SDS011;2932;52.400;9.558;2023-04-16T11:47:16;25.33;;;16.63;;
5811;SDS011;2932;52.400;9.558;2023-04-16T11:49:41;22.30;;;15.07;;
5811;SDS011;2932;52.400;9.558;2023-04-16T11:52:06;23.17;;;15.63;;
5811;SDS011;2932;52.400;9.558;2023-04-16T11:54:32;21.40;;;14.73;;
5811;SDS011;2932;52.400;9.558;2023-04-16T11:56:58;19.83;;;14.77;;
5811;SDS011;2932;52.400;9.558;2023-04-16T11:59:24;16.37;;;13.80;;
5811;SDS011;2932;52.400;9.558;2023-04-16T12:01:50;24.13;;;15.83;;
5811;SDS011;2932;52.400;9.558;2023-04-16T12:04:19;20.77;;;15.00;;
5811;SDS011;2932;52.400;9.558;2023-04-16T12:07:04;21.50;;;15.40;;
5811;SDS011;2932;52.400;9.558;2023-04-16T12:09:33;22.60;;;16.40;;
5811;SDS011;2932;52.400;9.558;2023-04-16T12:11:59;22.10;;;15.80;;
5811;SDS011;2932;52.400;9.558;2023-04-16T12:14:28;20.47;;;15.33;;
5811;SDS011;2932;52.400;9.558;2023-04-16T12:16:54;19.27;;;13.87;;
5811;SDS011;2932;52.400;9.558;2023-04-16T12:19:20;22.47;;;14.87;;
5811;SDS011;2932;52.400;9.558;2023-04-16T12:21:47;21.37;;;15.17;;
5811;SDS011;2932;52.400;9.558;2023-04-16T12:24:17;19.67;;;14.60;;
5811;SDS011;2932;52.400;9.558;2023-04-16T12:26:51;19.73;;;14.87;;
5811;SDS011;2932;52.400;9.558;2023-04-16T12:29:24;21.00;;;15.40;;
5811;SDS011;2932;52.400;9.558;2023-04-16T12:31:51;22.03;;;14.90;;
5811;SDS011;2932;52.400;9.558;2023-04-16T12:34:17;20.13;;;14.03;;
5811;SDS011;2932;52.400;9.558;2023-04-16T12:36:45;21.63;;;15.03;;
5811;SDS011;2932;52.400;9.558;2023-04-16T12:39:11;19.57;;;13.80;;
5811;SDS011;2932;52.400;9.558;2023-04-16T12:41:38;19.23;;;14.10;;
5811;SDS011;2932;52.400;9.558;2023-04-16T12:46:42;18.93;;;13.73;;
5811;SDS011;2932;52.400;9.558;2023-04-16T12:49:08;18.27;;;14.43;;
5811;SDS011;2932;52.400;9.558;2023-04-16T12:51:35;19.40;;;13.60;;
5811;SDS011;2932;52.400;9.558;2023-04-16T12:54:01;18.30;;;12.60;;
5811;SDS011;2932;52.400;9.558;2023-04-16T12:56:28;17.87;;;13.27;;
5811;SDS011;2932;52.400;9.558;2023-04-16T12:58:54;17.43;;;12.63;;
5811;SDS011;2932;52.400;9.558;2023-04-16T13:01:20;17.83;;;13.57;;
5811;SDS011;2932;52.400;9.558;2023-04-16T13:03:46;21.43;;;13.47;;
5811;SDS011;2932;52.400;9.558;2023-04-16T13:06:12;16.77;;;13.07;;
5811;SDS011;2932;52.400;9.558;2023-04-16T13:08:39;17.90;;;13.10;;
5811;SDS011;2932;52.400;9.558;2023-04-16T13:11:08;18.30;;;12.77;;
5811;SDS011;2932;52.400;9.558;2023-04-16T13:13:34;15.47;;;12.60;;
5811;SDS011;2932;52.400;9.558;2023-04-16T13:16:00;14.67;;;11.47;;
5811;SDS011;2932;52.400;9.558;2023-04-16T13:18:27;18.07;;;12.60;;
5811;SDS011;2932;52.400;9.558;2023-04-16T13:20:53;15.83;;;12.57;;
5811;SDS011;2932;52.400;9.558;2023-04-16T13:23:18;14.97;;;10.43;;
5811;SDS011;2932;52.400;9.558;2023-04-16T13:25:44;13.40;;;10.37;;
5811;SDS011;2932;52.400;9.558;2023-04-16T13:28:09;13.57;;;10.70;;
5811;SDS011;2932;52.400;9.558;2023-04-16T13:30:35;12.20;;;10.30;;
5811;SDS011;2932;52.400;9.558;2023-04-16T13:33:00;13.77;;;10.30;;
5811;SDS011;2932;52.400;9.558;2023-04-16T13:35:28;14.13;;;11.20;;
5811;SDS011;2932;52.400;9.558;2023-04-16T13:37:53;12.63;;;10.63;;
5811;SDS011;2932;52.400;9.558;2023-04-16T13:40:19;12.87;;;10.07;;
5811;SDS011;2932;52.400;9.558;2023-04-16T13:42:44;13.73;;;10.40;;
5811;SDS011;2932;52.400;9.558;2023-04-16T13:45:10;12.77;;;9.80;;
5811;SDS011;2932;52.400;9.558;2023-04-16T13:47:35;14.37;;;10.40;;
5811;SDS011;2932;52.400;9.558;2023-04-16T13:50:02;13.23;;;10.27;;
5811;SDS011;2932;52.400;9.558;2023-04-16T13:52:27;11.27;;;9.30;;
5811;SDS011;2932;52.400;9.558;2023-04-16T13:54:53;11.67;;;8.83;;
5811;SDS011;2932;52.400;9.558;2023-04-16T13:57:18;10.63;;;8.77;;
5811;SDS011;2932;52.400;9.558;2023-04-16T13:59:44;11.57;;;9.37;;
5811;SDS011;2932;52.400;9.558;2023-04-16T14:02:09;13.50;;;9.37;;
5811;SDS011;2932;52.400;9.558;2023-04-16T14:04:35;11.97;;;9.30;;
5811;SDS011;2932;52.400;9.558;2023-04-16T14:07:00;11.73;;;9.27;;
5811;SDS011;2932;52.400;9.558;2023-04-16T14:09:26;11.00;;;9.00;;
5811;SDS011;2932;52.400;9.558;2023-04-16T14:11:52;13.60;;;10.10;;
5811;SDS011;2932;52.400;9.558;2023-04-16T14:14:17;12.50;;;9.47;;
5811;SDS011;2932;52.400;9.558;2023-04-16T14:16:42;13.13;;;9.83;;
5811;SDS011;2932;52.400;9.558;2023-04-16T14:19:08;12.53;;;9.30;;
5811;SDS011;2932;52.400;9.558;2023-04-16T14:21:33;10.53;;;8.93;;
5811;SDS011;2932;52.400;9.558;2023-04-16T14:23:59;12.03;;;9.50;;
5811;SDS011;2932;52.400;9.558;2023-04-16T14:26:25;12.33;;;9.50;;
5811;SDS011;2932;52.400;9.558;2023-04-16T14:28:50;13.33;;;9.50;;
5811;SDS011;2932;52.400;9.558;2023-04-16T14:31:16;14.27;;;9.27;;
5811;SDS011;2932;52.400;9.558;2023-04-16T14:33:42;11.33;;;9.43;;
5811;SDS011;2932;52.400;9.558;2023-04-16T14:36:07;11.97;;;9.20;;
5811;SDS011;2932;52.400;9.558;2023-04-16T14:38:33;10.83;;;9.37;;
5811;SDS011;2932;52.400;9.558;2023-04-16T14:40:59;12.83;;;9.57;;
5811;SDS011;2932;52.400;9.558;2023-04-16T14:43:24;12.63;;;9.57;;
5811;SDS011;2932;52.400;9.558;2023-04-16T14:45:51;11.33;;;9.43;;
5811;SDS011;2932;52.400;9.558;2023-04-16T14:48:16;11.77;;;9.80;;
5811;SDS011;2932;52.400;9.558;2023-04-16T14:50:42;11.93;;;8.53;;
5811;SDS011;2932;52.400;9.558;2023-04-16T14:53:08;10.40;;;8.80;;
5811;SDS011;2932;52.400;9.558;2023-04-16T14:55:34;11.10;;;8.17;;
5811;SDS011;2932;52.400;9.558;2023-04-16T14:58:00;11.93;;;8.67;;